CZST

Details ICAO CZST (ZST)
Name STEWART
Region Canada
Timezone America/Vancouver (UTC-8.0)
Plans Departing 108
Arriving 90
Stats Elevation 24 ft / 7 m (AMSL)
Location 55.935400° -129.984000°
Runways 1
Magnetic Variation 17.967° E
Sunrise 2020-11-28 16:43:51 UTC / 2020-11-28 08:43:51 Local
Sunset 2020-11-29 00:15:24 UTC / 2020-11-28 16:15:24 Local
Advertisement - Login to hide

Runways

ID Width Length Bearing (true/mag) Surface Threshold Overrun Markings Lighting
18 75 ft / 23 m 3,873 ft / 1,180 m 194.43° / 176.46° ASPHALT 0 ft / 0 m 0 ft / 0 m APP
36 75 ft / 23 m 3,873 ft / 1,180 m 14.42° / 356.46° ASPHALT 0 ft / 0 m 0 ft / 0 m APP

Map

Weather


0- 5 10 15 20 25 30 35+ Temperature / °C

Clouds and Precipitation
Forecast for 2020-11-29 00:00 UTC. Updated 24 minutes ago

Ground ~20,000 ft ~40,000 ft Winds

METAR

CZST 282100Z 18003KT 3SM -SN SCT010 OVC025 M02/M05 A3011 RMK SC4SC4 WND ESTD SLP198

TAF

Not found

Frequencies

Unicom 123.20 MHz CTAF
Warning: Do not use this data for real-world aviation or navigation. No guarantee of current accuracy is given.